Data for 02/12/2009

Time Sea-Level Adjusted Pressure Absolute Pressure Temperature Relative Humidity Dew Point   
(mb) (inHg) (mb) (inHg) (C) (F) (%) (C) (F)
00:05 1015 29.97 845 24.95 -2.5 27.5 61 -9 15.9
00:10 1015 29.97 845 24.95 -2.5 27.5 61 -9 15.8
00:15 1015 29.97 845 24.95 -2.5 27.4 61 -9 15.8
00:20 1015 29.97 845 24.95 -2.6 27.3 62 -9 15.9
00:25 1016 30 845 24.95 -2.6 27.4 62 -8.9 15.9
00:30 1016 30 845 24.95 -2.7 27.2 62 -8.9 16
00:35 1016 30 845 24.95 -2.7 27.1 63 -8.9 16
00:40 1016 30 845 24.95 -2.8 26.9 63 -8.9 15.9
00:45 1016 30 845 24.95 -3 26.6 64 -8.9 15.9
00:50 1016 30 845 24.95 -3.2 26.2 63 -9.4 15.2
00:55 1016 30 845 24.95 -3.3 26.1 63 -9.4 15
01:00 1016 30 845 24.95 -3.4 25.9 62 -9.6 14.7
01:05 1016 30 845 24.95 -3.4 25.8 60 -10.1 13.9
01:10 1016 30 845 24.95 -3.7 25.4 63 -9.8 14.4
01:15 1016 30 845 24.95 -3.7 25.4 61 -10.1 13.8
01:20 1016 30 845 24.95 -3.6 25.6 61 -10 14
01:25 1016 30 845 24.95 -3.7 25.4 63 -9.8 14.4
01:30 1016 30 845 24.95 -3.8 25.2 63 -9.9 14.1
01:35 1016 30 845 24.95 -3.7 25.3 62 -10.1 13.9
01:40 1016 30 845 24.95 -3.7 25.4 62 -10 14
01:45 1016 30 845 24.95 -3.6 25.5 61 -10.1 13.8
01:50 1016 30 845 24.95 -3.6 25.5 62 -10 14
01:55 1016 30 845 24.95 -3.6 25.5 61 -10.1 13.9
02:00 1016 30 845 24.95 -3.6 25.5 61 -10 14
02:05 1016 30 845 24.95 -3.6 25.5 61 -10 14
02:10 1016 30 845 24.95 -3.6 25.5 61 -10 14.1
02:15 1016 30 845 24.95 -3.8 25.2 63 -9.8 14.3
02:20 1016 30 845 24.95 -3.8 25.1 63 -10 14
02:25 1016 30 845 24.95 -3.8 25.1 63 -9.8 14.4
02:30 1016 30 845 24.95 -3.9 24.9 65 -9.7 14.6
02:35 1016 30 845 24.95 -4.1 24.5 67 -9.5 15
02:40 1016 30 845 24.95 -4.2 24.5 65 -9.7 14.5
02:45 1016 30 845 24.95 -4.1 24.7 63 -10.1 13.8
02:50 1016 30 845 24.95 -4 24.8 62 -10.3 13.4
02:55 1016 30 845 24.95 -3.9 24.9 59 -10.9 12.4
03:00 1016 30 845 24.95 -4 24.8 59 -11 12.3
03:05 1016 30 845 24.95 -4.2 24.5 59 -11 12.3
03:10 1016 30 845 24.95 -4.3 24.3 60 -10.9 12.4
03:15 1016 30 845 24.95 -4.4 24.1 61 -10.9 12.4
03:20 1016 30 845 24.95 -4.5 23.9 63 -10.5 13.1
03:25 1016 30 845 24.95 -4.7 23.5 64 -10.5 13.1
03:30 1016 30 845 24.95 -4.9 23.1 64 -10.6 12.9
03:35 1016 30 845 24.95 -4.9 23.1 64 -10.7 12.8
03:40 1016 30 845 24.95 -4.9 23.2 64 -10.6 12.9
03:45 1016 30 845 24.95 -5.1 22.9 65 -10.8 12.6
03:50 1016 30 845 24.95 -5.1 22.8 66 -10.5 13.1
03:55 1016 30 845 24.95 -5.2 22.6 67 -10.4 13.3
04:00 1016 30 845 24.95 -5.4 22.3 68 -10.4 13.3
04:05 1016 30 845 24.95 -5.3 22.4 69 -10.2 13.6
04:10 1016 30 845 24.95 -5.4 22.3 69 -10.3 13.5
04:15 1016 30 845 24.95 -5.5 22.1 69 -10.3 13.4
04:20 1016 30 845 24.95 -5.5 22.2 70 -10.2 13.7
04:25 1016 30 845 24.95 -5.4 22.3 70 -10 14.1
04:30 1016 30 845 24.95 -5.6 21.9 72 -9.9 14.2
04:35 1016 30 845 24.95 -5.8 21.5 73 -9.9 14.2
04:40 1016 30 845 24.95 -5.8 21.5 72 -10 13.9
04:45 1016 30 845 24.95 -5.8 21.6 71 -10.2 13.6
04:50 1016 30 845 24.95 -5.5 22.2 69 -10.3 13.4
04:55 1016 30 845 24.95 -5.2 22.6 68 -10.3 13.4
05:00 1016 30 845 24.95 -5.1 22.8 68 -10.2 13.7
05:05 1016 30 845 24.95 -5.1 22.8 69 -9.9 14.2
05:10 1016 30 845 24.95 -5.1 22.8 69 -9.9 14.1
05:15 1016 30 845 24.95 -5.2 22.7 70 -9.8 14.4
05:20 1016 30 845 24.95 -5.4 22.3 72 -9.7 14.6
05:25 1016 30 845 24.95 -5.6 21.9 72 -9.8 14.3
05:30 1016 30 845 24.95 -5.7 21.7 72 -10 14.1
05:35 1016 30 845 24.95 -5.9 21.5 74 -9.7 14.5
05:40 1016 30 845 24.95 -6.1 21 72 -10.3 13.4
05:45 1016 30 845 24.95 -5.9 21.4 72 -10.2 13.7
05:50 1016 30 845 24.95 -5.7 21.7 71 -10.2 13.6
05:55 1016 30 845 24.95 -5.8 21.6 71 -10.2 13.7
06:00 1016 30 845 24.95 -6.1 21 71 -10.5 13
06:05 1016 30 845 24.95 -6.4 20.4 70 -11 12.1
06:10 1016 30 845 24.95 -6.3 20.7 73 -10.3 13.4
06:15 1016 30 845 24.95 -6.5 20.3 71 -10.9 12.3
06:20 1016 30 845 24.95 -6.5 20.2 68 -11.5 11.2
06:25 1016 30 845 24.95 -6.5 20.3 63 -12.4 9.7
06:30 1016 30 845 24.95 -6.2 20.8 67 -11.5 11.4
06:35 1016 30 845 24.95 -6.5 20.2 70 -11.1 12
06:40 1016 30 845 24.95 -6.8 19.8 70 -11.5 11.4
06:45 1016 30 845 24.95 -6.6 20.1 70 -11.2 11.9
06:50 1016 30 845 24.95 -6.4 20.5 70 -11 12.3
06:55 1016 30 845 24.95 -6.3 20.6 70 -10.9 12.4
07:00 1016 30 845 24.95 -6.3 20.7 67 -11.5 11.4
07:05 1016 30 845 24.95 -6.3 20.6 67 -11.4 11.5
07:10 1016 30 845 24.95 -6.3 20.6 69 -11.1 12
07:15 1016 30 845 24.95 -6.3 20.7 69 -11.1 12
07:20 1016 30 845 24.95 -6.3 20.7 70 -10.8 12.5
07:25 1016 30 845 24.95 -6.2 20.8 69 -11.1 12
07:30 1016 30 845 24.95 -6.2 20.9 68 -11.2 11.8
07:35 1016 30 845 24.95 -6.2 20.9 70 -10.9 12.5
07:40 1016 30 845 24.95 -6.3 20.6 67 -11.5 11.3
07:45 1016 30 845 24.95 -6.3 20.6 66 -11.6 11.1
07:50 1016 30 845 24.95 -6.3 20.7 65 -11.8 10.8
07:55 1016 30 846 24.98 -6.1 21 63 -12.2 10.1
08:00 1016 30 846 24.98 -5.6 21.9 61 -12.1 10.3
08:05 1016 30 846 24.98 -5.6 22 61 -11.9 10.6
08:10 1016 30 846 24.98 -5.7 21.8 65 -11.2 11.8
08:15 1016 30 846 24.98 -5.8 21.6 68 -10.7 12.7
08:20 1016 30 846 24.98 -5.9 21.3 70 -10.6 12.9
08:25 1016 30 846 24.98 -5.9 21.5 66 -11.2 11.9
08:30 1017 30.03 846 24.98 -5.5 22.1 62 -11.8 10.8
08:35 1017 30.03 846 24.98 -5.1 22.9 61 -11.5 11.4
08:40 1017 30.03 846 24.98 -4.5 23.9 56 -12 10.3
08:45 1017 30.03 846 24.98 -3.7 25.4 55 -11.4 11.4
08:50 1017 30.03 846 24.98 -3.3 26.1 53 -11.5 11.2
08:55 1017 30.03 846 24.98 -3.1 26.5 53 -11.5 11.4
09:00 1017 30.03 846 24.98 -3.2 26.3 50 -12.1 10.2
09:05 1017 30.03 846 24.98 -2.8 26.9 52 -11.3 11.6
09:10 1017 30.03 846 24.98 -2.5 27.4 50 -11.7 11
09:15 1017 30.03 846 24.98 -2.3 27.9 49 -11.6 11.1
09:20 1017 30.03 846 24.98 -2.4 27.7 50 -11.5 11.2
09:25 1017 30.03 846 24.98 -2.5 27.5 49 -11.8 10.7
09:30 1017 30.03 846 24.98 -2.3 27.8 49 -11.5 11.3
09:35 1017 30.03 846 24.98 -2.2 28.1 48 -11.9 10.6
09:40 1017 30.03 846 24.98 -2.1 28.3 48 -11.6 11.1
09:45 1017 30.03 846 24.98 -2.2 28.1 49 -11.6 11.1
09:50 1017 30.03 846 24.98 -1.9 28.5 48 -11.6 11.1
09:55 1017 30.03 846 24.98 -1.5 29.3 48 -11.1 12
10:00 1017 30.03 846 24.98 -1.8 28.7 48 -11.3 11.6
10:05 1017 30.03 846 24.98 -1.8 28.7 48 -11.5 11.3
10:10 1017 30.03 846 24.98 -1.6 29.2 48 -11.1 12
10:15 1017 30.03 846 24.98 -1.5 29.4 47 -11.5 11.4
10:20 1017 30.03 846 24.98 -1.6 29.2 47 -11.5 11.2
10:25 1017 30.03 846 24.98 -1.5 29.2 45 -11.9 10.6
10:30 1017 30.03 846 24.98 -1.1 30 46 -11.3 11.6
10:35 1017 30.03 846 24.98 -1.1 30 45 -11.5 11.2
10:40 1017 30.03 846 24.98 -1 30.3 43 -11.9 10.5
10:45 1017 30.03 846 24.98 -0.6 30.8 41 -12.4 9.7
10:50 1017 30.03 846 24.98 -0.5 31.1 40 -12.4 9.7
10:55 1017 30.03 846 24.98 -1.5 29.3 46 -11.8 10.8
11:00 1017 30.03 846 24.98 -1.6 29.1 44 -12.2 10
11:05 1017 30.03 846 24.98 -0.9 30.4 42 -12.2 10
11:10 1017 30.03 846 24.98 -0.4 31.3 41 -12.2 10
11:15 1017 30.03 846 24.98 0.5 32.9 39 -11.9 10.6
11:20 1017 30.03 846 24.98 0.9 33.6 38 -12 10.4
11:25 1017 30.03 846 24.98 1.2 34.2 35 -12.5 9.4
11:30 1017 30.03 846 24.98 1.4 34.5 36 -12 10.4
11:35 1016 30 846 24.98 1.3 34.4 38 -11.4 11.6
11:40 1016 30 846 24.98 1.4 34.6 38 -11.3 11.7
11:45 1016 30 846 24.98 0.4 32.7 44 -10.5 13.2
11:50 1016 30 846 24.98 0.2 32.3 42 -11.2 11.9
11:55 1016 30 845 24.95 0.4 32.6 43 -10.9 12.5
12:00 1016 30 845 24.95 -0.8 30.7 44 -11.4 11.4
12:05 1016 30 845 24.95 -1.4 29.5 47 -11.2 11.8
12:10 1016 30 845 24.95 -1.6 29.1 46 -11.7 10.9
12:15 1016 30 845 24.95 -1.5 29.3 45 -11.9 10.5
12:20 1016 30 845 24.95 -0.1 31.8 40 -12.2 10.1
12:25 1016 30 845 24.95 1.1 34.1 39 -11.2 11.8
12:30 1016 30 845 24.95 0.7 33.3 41 -11 12.2
12:35 1016 30 845 24.95 0.3 32.5 40 -11.7 10.9
12:40 1016 30 845 24.95 -0.9 30.5 46 -11.1 12.1
12:45 1016 30 845 24.95 -0.6 31 44 -11.3 11.7
12:50 1016 30 845 24.95 0.5 32.9 40 -11.6 11
12:55 1016 30 845 24.95 0.3 32.6 39 -12.1 10.1
13:00 1016 30 845 24.95 -0.1 31.8 43 -11.3 11.6
13:05 1016 30 845 24.95 -0.4 31.4 44 -11.1 12.1
13:10 1016 30 845 24.95 0.1 32.2 40 -12.1 10.3
13:15 1016 30 845 24.95 0.7 33.2 38 -11.9 10.5
13:20 1016 30 845 24.95 0.6 33.1 38 -12.3 9.9
13:25 1016 30 845 24.95 0 32.1 38 -12.6 9.3
13:30 1016 30 845 24.95 0.9 33.7 36 -12.6 9.3
13:35 1016 30 845 24.95 1.3 34.4 36 -12.1 10.1
13:40 1016 30 845 24.95 2.1 35.8 34 -12.1 10.2
13:45 1016 30 845 24.95 1.4 34.6 36 -12 10.5
13:50 1016 30 845 24.95 0.8 33.5 42 -10.8 12.5
13:55 1015 29.97 845 24.95 0.8 33.5 36 -12.5 9.5
14:00 1015 29.97 845 24.95 1.2 34.1 40 -11 12.3
14:05 1015 29.97 845 24.95 0.3 32.5 40 -11.8 10.8
14:10 1015 29.97 845 24.95 -0.8 30.6 46 -11 12.2
14:15 1015 29.97 845 24.95 -0.6 30.9 45 -11 12.1
14:20 1015 29.97 845 24.95 -0.4 31.3 41 -12 10.4
14:25 1015 29.97 845 24.95 -0.2 31.7 45 -10.7 12.8
14:30 1015 29.97 845 24.95 -0.5 31 44 -11.5 11.4
14:35 1015 29.97 845 24.95 0.1 32.1 42 -11.4 11.5
14:40 1015 29.97 845 24.95 -0.7 30.8 44 -11.4 11.6
14:45 1015 29.97 845 24.95 -0.7 30.7 44 -11.6 11
14:50 1015 29.97 845 24.95 -0.6 30.9 44 -11.4 11.5
14:55 1015 29.97 845 24.95 0.3 32.5 40 -11.9 10.6
15:00 1015 29.97 845 24.95 0.9 33.7 37 -12.1 10.2
15:05 1015 29.97 845 24.95 0.4 32.6 43 -10.9 12.3
15:10 1015 29.97 845 24.95 -0.4 31.4 43 -11.4 11.5
15:15 1015 29.97 845 24.95 -0.7 30.8 44 -11.6 11.1
15:20 1015 29.97 845 24.95 -0.2 31.7 42 -11.5 11.3
15:25 1015 29.97 845 24.95 -0 31.9 43 -11.3 11.7
15:30 1015 29.97 845 24.95 0.3 32.6 41 -11.4 11.6
15:35 1015 29.97 845 24.95 0.7 33.2 42 -10.7 12.7
15:40 1015 29.97 845 24.95 1.2 34.1 40 -11.1 12
15:45 1015 29.97 845 24.95 0.7 33.3 43 -10.4 13.3
15:50 1015 29.97 845 24.95 -0.4 31.3 47 -10.5 13.1
15:55 1015 29.97 845 24.95 0.7 33.2 40 -11.6 11.2
16:00 1016 30 845 24.95 1.8 35.3 38 -11.1 11.9
16:05 1016 30 845 24.95 1.4 34.4 41 -10.5 13.2
16:10 1016 30 845 24.95 1.1 33.9 41 -10.7 12.8
16:15 1016 30 845 24.95 1.1 34 42 -10.5 13.2
16:20 1016 30 845 24.95 0.1 32.3 44 -10.6 12.9